sensor_id;sensor_type;location;lat;lon;timestamp;pressure;altitude;pressure_sealevel;temperature;humidity
17311;BME280;8773;43.300;0.394;2023-06-14T00:01:11;99336.47;;;21.16;70.52
17311;BME280;8773;43.300;0.394;2023-06-14T00:03:39;99329.03;;;20.99;70.73
17311;BME280;8773;43.300;0.394;2023-06-14T00:06:06;99326.06;;;21.13;70.34
17311;BME280;8773;43.300;0.394;2023-06-14T00:08:34;99317.94;;;21.24;69.93
17311;BME280;8773;43.300;0.394;2023-06-14T00:11:01;99325.47;;;21.11;69.83
17311;BME280;8773;43.300;0.394;2023-06-14T00:13:30;99330.19;;;21.15;70.14
17311;BME280;8773;43.300;0.394;2023-06-14T00:15:57;99328.56;;;21.26;69.85
17311;BME280;8773;43.300;0.394;2023-06-14T00:18:25;99323.25;;;21.31;69.71
17311;BME280;8773;43.300;0.394;2023-06-14T00:20:52;99322.19;;;21.44;69.40
17311;BME280;8773;43.300;0.394;2023-06-14T00:23:20;99321.25;;;21.38;68.85
17311;BME280;8773;43.300;0.394;2023-06-14T00:25:47;99315.44;;;20.99;69.52
17311;BME280;8773;43.300;0.394;2023-06-14T00:28:15;99315.09;;;20.96;70.15
17311;BME280;8773;43.300;0.394;2023-06-14T00:30:43;99323.34;;;20.89;70.02
17311;BME280;8773;43.300;0.394;2023-06-14T00:33:11;99320.75;;;20.94;70.30
17311;BME280;8773;43.300;0.394;2023-06-14T00:35:38;99316.38;;;20.93;69.99
17311;BME280;8773;43.300;0.394;2023-06-14T00:38:06;99321.69;;;20.88;70.59
17311;BME280;8773;43.300;0.394;2023-06-14T00:40:33;99312.75;;;20.99;70.13
17311;BME280;8773;43.300;0.394;2023-06-14T00:43:01;99318.84;;;21.07;69.78
17311;BME280;8773;43.300;0.394;2023-06-14T00:45:28;99327.13;;;21.12;69.73
17311;BME280;8773;43.300;0.394;2023-06-14T00:47:57;99326.19;;;21.18;69.47
17311;BME280;8773;43.300;0.394;2023-06-14T00:50:25;99339.44;;;21.26;69.11
17311;BME280;8773;43.300;0.394;2023-06-14T00:52:53;99342.84;;;21.33;69.21
17311;BME280;8773;43.300;0.394;2023-06-14T00:55:20;99344.50;;;21.22;69.46
17311;BME280;8773;43.300;0.394;2023-06-14T00:57:48;99347.34;;;21.39;69.11
17311;BME280;8773;43.300;0.394;2023-06-14T01:00:16;99341.31;;;21.25;69.04
17311;BME280;8773;43.300;0.394;2023-06-14T01:02:44;99351.94;;;21.27;69.49
17311;BME280;8773;43.300;0.394;2023-06-14T01:05:13;99349.72;;;21.47;69.32
17311;BME280;8773;43.300;0.394;2023-06-14T01:07:51;99347.44;;;21.56;68.95
17311;BME280;8773;43.300;0.394;2023-06-14T01:10:31;99346.06;;;21.42;68.98
17311;BME280;8773;43.300;0.394;2023-06-14T01:13:07;99351.81;;;21.57;68.45
17311;BME280;8773;43.300;0.394;2023-06-14T01:15:38;99348.50;;;21.55;68.61
17311;BME280;8773;43.300;0.394;2023-06-14T01:18:06;99354.66;;;21.62;68.72
17311;BME280;8773;43.300;0.394;2023-06-14T01:20:35;99361.38;;;21.24;69.17
17311;BME280;8773;43.300;0.394;2023-06-14T01:23:05;99367.38;;;21.15;70.05
17311;BME280;8773;43.300;0.394;2023-06-14T01:25:32;99370.09;;;20.73;71.18
17311;BME280;8773;43.300;0.394;2023-06-14T01:28:01;99374.81;;;20.78;71.33
17311;BME280;8773;43.300;0.394;2023-06-14T01:30:30;99373.94;;;20.65;71.93
17311;BME280;8773;43.300;0.394;2023-06-14T01:32:59;99371.41;;;20.82;71.41
17311;BME280;8773;43.300;0.394;2023-06-14T01:35:27;99371.47;;;20.64;71.72
17311;BME280;8773;43.300;0.394;2023-06-14T01:37:55;99375.78;;;20.83;70.49
17311;BME280;8773;43.300;0.394;2023-06-14T01:40:24;99371.94;;;20.91;70.70
17311;BME280;8773;43.300;0.394;2023-06-14T01:42:52;99360.56;;;20.82;71.01
17311;BME280;8773;43.300;0.394;2023-06-14T01:45:20;99360.03;;;20.92;70.70
17311;BME280;8773;43.300;0.394;2023-06-14T01:47:49;99370.19;;;20.96;70.84
17311;BME280;8773;43.300;0.394;2023-06-14T01:50:18;99369.50;;;21.01;70.35
17311;BME280;8773;43.300;0.394;2023-06-14T01:52:46;99371.41;;;21.12;70.05
17311;BME280;8773;43.300;0.394;2023-06-14T01:55:13;99372.59;;;21.05;69.95
17311;BME280;8773;43.300;0.394;2023-06-14T01:57:42;99374.09;;;21.12;69.75
17311;BME280;8773;43.300;0.394;2023-06-14T02:00:11;99374.84;;;21.19;69.60
17311;BME280;8773;43.300;0.394;2023-06-14T02:02:39;99380.13;;;21.14;68.99
17311;BME280;8773;43.300;0.394;2023-06-14T02:05:07;99377.66;;;21.13;69.13
17311;BME280;8773;43.300;0.394;2023-06-14T02:07:34;99382.97;;;20.78;69.68
17311;BME280;8773;43.300;0.394;2023-06-14T02:10:02;99379.06;;;20.74;69.89
17311;BME280;8773;43.300;0.394;2023-06-14T02:12:29;99378.09;;;20.68;69.67
17311;BME280;8773;43.300;0.394;2023-06-14T02:14:58;99382.50;;;20.51;70.18
17311;BME280;8773;43.300;0.394;2023-06-14T02:17:25;99380.41;;;20.53;70.59
17311;BME280;8773;43.300;0.394;2023-06-14T02:19:53;99378.91;;;20.68;70.27
17311;BME280;8773;43.300;0.394;2023-06-14T02:22:20;99379.66;;;20.76;69.65
17311;BME280;8773;43.300;0.394;2023-06-14T02:24:47;99379.56;;;20.82;69.63
17311;BME280;8773;43.300;0.394;2023-06-14T02:27:20;99385.59;;;20.84;69.53
17311;BME280;8773;43.300;0.394;2023-06-14T02:29:48;99393.25;;;20.87;69.29
17311;BME280;8773;43.300;0.394;2023-06-14T02:32:17;99384.22;;;20.93;68.88
17311;BME280;8773;43.300;0.394;2023-06-14T02:34:44;99385.91;;;21.06;68.46
17311;BME280;8773;43.300;0.394;2023-06-14T02:37:11;99381.41;;;21.00;68.16
17311;BME280;8773;43.300;0.394;2023-06-14T02:39:39;99375.53;;;21.03;68.22
17311;BME280;8773;43.300;0.394;2023-06-14T02:42:07;99378.72;;;21.12;67.87
17311;BME280;8773;43.300;0.394;2023-06-14T02:44:34;99379.91;;;21.16;67.50
17311;BME280;8773;43.300;0.394;2023-06-14T02:47:02;99377.78;;;21.18;66.95
17311;BME280;8773;43.300;0.394;2023-06-14T02:49:30;99380.81;;;21.10;67.02
17311;BME280;8773;43.300;0.394;2023-06-14T02:51:58;99385.78;;;21.13;67.59
17311;BME280;8773;43.300;0.394;2023-06-14T02:54:25;99386.25;;;21.10;67.47
17311;BME280;8773;43.300;0.394;2023-06-14T02:56:53;99386.94;;;20.93;67.77
17311;BME280;8773;43.300;0.394;2023-06-14T02:59:20;99391.69;;;20.98;67.73
17311;BME280;8773;43.300;0.394;2023-06-14T03:01:48;99393.09;;;21.01;67.31
17311;BME280;8773;43.300;0.394;2023-06-14T03:04:15;99389.19;;;20.96;67.41
17311;BME280;8773;43.300;0.394;2023-06-14T03:06:44;99395.56;;;20.90;67.93
17311;BME280;8773;43.300;0.394;2023-06-14T03:09:11;99389.69;;;21.05;68.20
17311;BME280;8773;43.300;0.394;2023-06-14T03:11:39;99387.81;;;21.17;68.79
17311;BME280;8773;43.300;0.394;2023-06-14T03:14:06;99398.19;;;21.09;68.57
17311;BME280;8773;43.300;0.394;2023-06-14T03:16:34;99409.78;;;20.01;72.09
17311;BME280;8773;43.300;0.394;2023-06-14T03:19:01;99417.53;;;19.29;75.04
17311;BME280;8773;43.300;0.394;2023-06-14T03:21:29;99407.38;;;19.50;74.97
17311;BME280;8773;43.300;0.394;2023-06-14T03:23:58;99409.53;;;19.84;74.59
17311;BME280;8773;43.300;0.394;2023-06-14T03:26:25;99406.34;;;20.12;73.61
17311;BME280;8773;43.300;0.394;2023-06-14T03:28:53;99410.19;;;20.41;72.99
17311;BME280;8773;43.300;0.394;2023-06-14T03:31:20;99410.84;;;20.55;71.59
17311;BME280;8773;43.300;0.394;2023-06-14T03:33:47;99408.50;;;20.58;72.04
17311;BME280;8773;43.300;0.394;2023-06-14T03:36:15;99408.97;;;20.67;71.05
17311;BME280;8773;43.300;0.394;2023-06-14T03:38:42;99403.94;;;20.71;71.47
17311;BME280;8773;43.300;0.394;2023-06-14T03:41:11;99406.72;;;20.64;70.24
17311;BME280;8773;43.300;0.394;2023-06-14T03:43:38;99403.56;;;20.67;71.46
17311;BME280;8773;43.300;0.394;2023-06-14T03:46:06;99402.78;;;20.78;70.72
17311;BME280;8773;43.300;0.394;2023-06-14T03:48:33;99405.34;;;20.73;70.96
17311;BME280;8773;43.300;0.394;2023-06-14T03:51:01;99405.25;;;20.80;71.17
17311;BME280;8773;43.300;0.394;2023-06-14T03:53:28;99403.97;;;20.82;70.53
17311;BME280;8773;43.300;0.394;2023-06-14T03:55:56;99411.53;;;20.80;70.74
17311;BME280;8773;43.300;0.394;2023-06-14T03:58:25;99410.78;;;20.73;69.92
17311;BME280;8773;43.300;0.394;2023-06-14T04:00:52;99408.81;;;20.80;70.45
17311;BME280;8773;43.300;0.394;2023-06-14T04:03:20;99411.66;;;20.85;70.70
17311;BME280;8773;43.300;0.394;2023-06-14T04:05:47;99414.38;;;20.85;70.17
17311;BME280;8773;43.300;0.394;2023-06-14T04:08:15;99413.78;;;20.83;70.21
17311;BME280;8773;43.300;0.394;2023-06-14T04:10:42;99414.53;;;20.90;69.90
17311;BME280;8773;43.300;0.394;2023-06-14T04:13:09;99408.53;;;20.88;69.68
17311;BME280;8773;43.300;0.394;2023-06-14T04:15:38;99407.53;;;20.83;69.85
17311;BME280;8773;43.300;0.394;2023-06-14T04:18:06;99414.69;;;20.77;70.37
17311;BME280;8773;43.300;0.394;2023-06-14T04:20:33;99404.50;;;20.61;70.53
17311;BME280;8773;43.300;0.394;2023-06-14T04:23:11;99409.44;;;20.64;71.28
17311;BME280;8773;43.300;0.394;2023-06-14T04:25:39;99411.94;;;20.65;69.93
17311;BME280;8773;43.300;0.394;2023-06-14T04:28:06;99413.41;;;20.50;70.59
17311;BME280;8773;43.300;0.394;2023-06-14T04:30:34;99423.81;;;20.53;71.12
17311;BME280;8773;43.300;0.394;2023-06-14T04:33:02;99429.97;;;20.60;70.62
17311;BME280;8773;43.300;0.394;2023-06-14T04:35:30;99424.06;;;20.63;71.34
17311;BME280;8773;43.300;0.394;2023-06-14T04:37:57;99429.31;;;20.76;71.21
17311;BME280;8773;43.300;0.394;2023-06-14T04:40:25;99433.13;;;20.57;71.44
17311;BME280;8773;43.300;0.394;2023-06-14T04:42:52;99435.94;;;20.50;72.11
17311;BME280;8773;43.300;0.394;2023-06-14T04:45:20;99442.19;;;20.32;72.80
17311;BME280;8773;43.300;0.394;2023-06-14T04:47:48;99442.56;;;20.36;73.12
17311;BME280;8773;43.300;0.394;2023-06-14T04:50:17;99449.41;;;20.20;73.52
17311;BME280;8773;43.300;0.394;2023-06-14T04:52:45;99444.09;;;20.14;74.08
17311;BME280;8773;43.300;0.394;2023-06-14T04:55:12;99446.09;;;20.37;73.53
17311;BME280;8773;43.300;0.394;2023-06-14T04:57:40;99437.38;;;20.53;73.11
17311;BME280;8773;43.300;0.394;2023-06-14T05:00:09;99433.75;;;20.22;74.01
17311;BME280;8773;43.300;0.394;2023-06-14T05:02:36;99444.16;;;20.44;73.61
17311;BME280;8773;43.300;0.394;2023-06-14T05:05:04;99456.50;;;20.40;73.79
17311;BME280;8773;43.300;0.394;2023-06-14T05:07:33;99461.09;;;20.39;73.92
17311;BME280;8773;43.300;0.394;2023-06-14T05:10:01;99464.31;;;20.29;74.04
17311;BME280;8773;43.300;0.394;2023-06-14T05:12:28;99465.44;;;20.22;73.93
17311;BME280;8773;43.300;0.394;2023-06-14T05:14:56;99467.50;;;20.26;74.39
17311;BME280;8773;43.300;0.394;2023-06-14T05:17:23;99477.06;;;20.29;74.03
17311;BME280;8773;43.300;0.394;2023-06-14T05:19:50;99482.78;;;20.39;74.09
17311;BME280;8773;43.300;0.394;2023-06-14T05:22:18;99482.25;;;20.49;73.78
17311;BME280;8773;43.300;0.394;2023-06-14T05:24:47;99485.56;;;20.69;73.69
17311;BME280;8773;43.300;0.394;2023-06-14T05:27:14;99483.22;;;20.73;73.10
17311;BME280;8773;43.300;0.394;2023-06-14T05:29:41;99493.16;;;20.79;73.00
17311;BME280;8773;43.300;0.394;2023-06-14T05:32:09;99491.19;;;20.67;73.25
17311;BME280;8773;43.300;0.394;2023-06-14T05:34:37;99483.50;;;20.83;73.10
17311;BME280;8773;43.300;0.394;2023-06-14T05:37:04;99482.69;;;20.82;73.08
17311;BME280;8773;43.300;0.394;2023-06-14T05:39:32;99484.56;;;20.82;73.24
17311;BME280;8773;43.300;0.394;2023-06-14T05:42:00;99477.84;;;21.03;72.53
17311;BME280;8773;43.300;0.394;2023-06-14T05:44:28;99483.81;;;20.93;72.80
17311;BME280;8773;43.300;0.394;2023-06-14T05:46:55;99486.00;;;20.84;72.71
17311;BME280;8773;43.300;0.394;2023-06-14T05:49:23;99490.72;;;21.07;72.24
17311;BME280;8773;43.300;0.394;2023-06-14T05:51:50;99482.47;;;21.14;71.94
17311;BME280;8773;43.300;0.394;2023-06-14T05:54:17;99483.34;;;21.26;71.71
17311;BME280;8773;43.300;0.394;2023-06-14T05:56:45;99478.28;;;21.29;71.66
17311;BME280;8773;43.300;0.394;2023-06-14T05:59:14;99483.81;;;21.23;71.28
17311;BME280;8773;43.300;0.394;2023-06-14T06:01:41;99492.28;;;21.15;71.68
17311;BME280;8773;43.300;0.394;2023-06-14T06:04:09;99489.78;;;21.13;71.83
17311;BME280;8773;43.300;0.394;2023-06-14T06:06:36;99492.03;;;21.05;72.48
17311;BME280;8773;43.300;0.394;2023-06-14T06:09:04;99489.25;;;20.93;72.49
17311;BME280;8773;43.300;0.394;2023-06-14T06:11:31;99493.53;;;20.82;72.98
17311;BME280;8773;43.300;0.394;2023-06-14T06:14:16;99481.31;;;20.73;73.37
17311;BME280;8773;43.300;0.394;2023-06-14T06:16:43;99492.47;;;20.83;73.21
17311;BME280;8773;43.300;0.394;2023-06-14T06:19:11;99492.66;;;20.88;73.10
17311;BME280;8773;43.300;0.394;2023-06-14T06:21:38;99497.91;;;21.02;72.35
17311;BME280;8773;43.300;0.394;2023-06-14T06:24:06;99498.59;;;20.97;72.74
17311;BME280;8773;43.300;0.394;2023-06-14T06:26:33;99505.25;;;21.13;72.34
17311;BME280;8773;43.300;0.394;2023-06-14T06:29:01;99497.78;;;21.08;72.23
17311;BME280;8773;43.300;0.394;2023-06-14T06:31:29;99493.69;;;21.06;72.32
17311;BME280;8773;43.300;0.394;2023-06-14T06:33:57;99510.66;;;21.01;72.60
17311;BME280;8773;43.300;0.394;2023-06-14T06:36:24;99508.41;;;20.98;72.46
17311;BME280;8773;43.300;0.394;2023-06-14T06:38:52;99513.03;;;21.09;72.37
17311;BME280;8773;43.300;0.394;2023-06-14T06:41:19;99521.00;;;21.22;71.81
17311;BME280;8773;43.300;0.394;2023-06-14T06:43:46;99523.03;;;21.27;71.29
17311;BME280;8773;43.300;0.394;2023-06-14T06:46:14;99525.59;;;21.22;71.35
17311;BME280;8773;43.300;0.394;2023-06-14T06:48:43;99532.97;;;21.03;71.11
17311;BME280;8773;43.300;0.394;2023-06-14T06:51:10;99548.59;;;21.19;71.43
17311;BME280;8773;43.300;0.394;2023-06-14T06:53:38;99544.47;;;21.17;71.65
17311;BME280;8773;43.300;0.394;2023-06-14T06:56:11;99547.19;;;21.17;71.19
17311;BME280;8773;43.300;0.394;2023-06-14T06:58:39;99552.34;;;20.88;71.76
17311;BME280;8773;43.300;0.394;2023-06-14T07:01:06;99553.31;;;20.57;72.21
17311;BME280;8773;43.300;0.394;2023-06-14T07:03:33;99555.38;;;20.62;72.77
17311;BME280;8773;43.300;0.394;2023-06-14T07:06:02;99572.16;;;20.71;72.57
17311;BME280;8773;43.300;0.394;2023-06-14T07:08:30;99571.84;;;20.79;72.18
17311;BME280;8773;43.300;0.394;2023-06-14T07:10:57;99578.25;;;20.66;72.03
17311;BME280;8773;43.300;0.394;2023-06-14T07:13:25;99586.69;;;20.76;71.97
17311;BME280;8773;43.300;0.394;2023-06-14T07:15:54;99578.59;;;20.94;71.05
17311;BME280;8773;43.300;0.394;2023-06-14T07:18:21;99582.94;;;21.14;70.46
17311;BME280;8773;43.300;0.394;2023-06-14T07:20:49;99591.13;;;20.95;70.07
17311;BME280;8773;43.300;0.394;2023-06-14T07:23:18;99591.63;;;21.04;70.03
17311;BME280;8773;43.300;0.394;2023-06-14T07:25:45;99592.97;;;21.13;70.17
17311;BME280;8773;43.300;0.394;2023-06-14T07:28:13;99597.41;;;21.08;70.07
17311;BME280;8773;43.300;0.394;2023-06-14T07:30:40;99602.88;;;20.89;70.23
17311;BME280;8773;43.300;0.394;2023-06-14T07:33:08;99604.66;;;20.59;71.14
17311;BME280;8773;43.300;0.394;2023-06-14T07:35:36;99606.75;;;20.75;70.62
17311;BME280;8773;43.300;0.394;2023-06-14T07:38:03;99622.84;;;20.95;70.17
17311;BME280;8773;43.300;0.394;2023-06-14T07:40:32;99620.69;;;21.04;70.09
17311;BME280;8773;43.300;0.394;2023-06-14T07:42:59;99627.84;;;20.73;70.55
17311;BME280;8773;43.300;0.394;2023-06-14T07:45:27;99629.34;;;20.69;70.14
17311;BME280;8773;43.300;0.394;2023-06-14T07:47:54;99622.88;;;20.70;70.11
17311;BME280;8773;43.300;0.394;2023-06-14T07:50:22;99620.97;;;20.95;69.76
17311;BME280;8773;43.300;0.394;2023-06-14T07:52:49;99631.91;;;20.89;69.40
17311;BME280;8773;43.300;0.394;2023-06-14T07:55:17;99631.44;;;20.92;69.53
17311;BME280;8773;43.300;0.394;2023-06-14T07:57:46;99632.59;;;20.78;69.68
17311;BME280;8773;43.300;0.394;2023-06-14T08:00:14;99637.31;;;20.64;69.95
17311;BME280;8773;43.300;0.394;2023-06-14T08:02:42;99645.94;;;20.79;69.94
17311;BME280;8773;43.300;0.394;2023-06-14T08:05:11;99635.16;;;20.97;69.82
17311;BME280;8773;43.300;0.394;2023-06-14T08:07:39;99645.22;;;21.09;69.05
17311;BME280;8773;43.300;0.394;2023-06-14T08:10:07;99648.16;;;21.07;69.23
17311;BME280;8773;43.300;0.394;2023-06-14T08:12:34;99641.63;;;20.96;69.26
17311;BME280;8773;43.300;0.394;2023-06-14T08:15:04;99646.06;;;20.66;69.83
17311;BME280;8773;43.300;0.394;2023-06-14T08:17:35;99650.44;;;20.67;69.91
17311;BME280;8773;43.300;0.394;2023-06-14T08:20:03;99656.25;;;20.71;69.70
17311;BME280;8773;43.300;0.394;2023-06-14T08:22:31;99654.31;;;20.59;69.91
17311;BME280;8773;43.300;0.394;2023-06-14T08:24:58;99649.44;;;20.43;70.35
17311;BME280;8773;43.300;0.394;2023-06-14T08:27:26;99657.56;;;20.43;70.10
17311;BME280;8773;43.300;0.394;2023-06-14T08:29:56;99660.22;;;20.50;70.21
17311;BME280;8773;43.300;0.394;2023-06-14T08:32:25;99660.16;;;20.31;70.37
17311;BME280;8773;43.300;0.394;2023-06-14T08:34:53;99668.91;;;20.33;70.88
17311;BME280;8773;43.300;0.394;2023-06-14T08:37:31;99666.81;;;20.36;70.72
17311;BME280;8773;43.300;0.394;2023-06-14T08:39:59;99672.78;;;20.44;70.54
17311;BME280;8773;43.300;0.394;2023-06-14T08:42:26;99679.25;;;20.43;69.68
17311;BME280;8773;43.300;0.394;2023-06-14T08:44:58;99679.16;;;20.31;70.46
17311;BME280;8773;43.300;0.394;2023-06-14T08:47:27;99677.66;;;20.36;70.39
17311;BME280;8773;43.300;0.394;2023-06-14T08:49:57;99687.78;;;20.47;70.17
17311;BME280;8773;43.300;0.394;2023-06-14T08:52:28;99685.03;;;20.53;70.25
17311;BME280;8773;43.300;0.394;2023-06-14T08:54:57;99698.06;;;20.63;70.04
17311;BME280;8773;43.300;0.394;2023-06-14T08:57:25;99695.44;;;20.56;70.79
17311;BME280;8773;43.300;0.394;2023-06-14T08:59:54;99698.06;;;20.63;71.09
17311;BME280;8773;43.300;0.394;2023-06-14T09:02:21;99710.88;;;20.56;71.26
17311;BME280;8773;43.300;0.394;2023-06-14T09:04:50;99707.47;;;20.36;72.18
17311;BME280;8773;43.300;0.394;2023-06-14T09:07:17;99715.97;;;20.46;72.53
17311;BME280;8773;43.300;0.394;2023-06-14T09:09:45;99709.22;;;20.55;72.39
17311;BME280;8773;43.300;0.394;2023-06-14T09:12:35;99710.47;;;20.77;71.78
17311;BME280;8773;43.300;0.394;2023-06-14T09:15:03;99712.28;;;20.83;71.54
17311;BME280;8773;43.300;0.394;2023-06-14T09:17:32;99712.75;;;21.05;70.92
17311;BME280;8773;43.300;0.394;2023-06-14T09:20:03;99706.84;;;20.90;71.13
17311;BME280;8773;43.300;0.394;2023-06-14T09:22:31;99710.38;;;21.09;70.43
17311;BME280;8773;43.300;0.394;2023-06-14T09:24:59;99705.06;;;21.02;70.11
17311;BME280;8773;43.300;0.394;2023-06-14T09:27:27;99713.94;;;20.91;70.80
17311;BME280;8773;43.300;0.394;2023-06-14T09:29:55;99716.44;;;20.86;71.35
17311;BME280;8773;43.300;0.394;2023-06-14T09:32:23;99715.41;;;20.87;70.71
17311;BME280;8773;43.300;0.394;2023-06-14T09:34:51;99721.78;;;20.99;70.43
17311;BME280;8773;43.300;0.394;2023-06-14T09:37:30;99721.78;;;20.99;70.43
17311;BME280;8773;43.300;0.394;2023-06-14T09:39:58;99717.72;;;20.83;70.47
17311;BME280;8773;43.300;0.394;2023-06-14T09:42:26;99725.16;;;20.94;70.39
17311;BME280;8773;43.300;0.394;2023-06-14T09:44:55;99723.50;;;20.93;70.10
17311;BME280;8773;43.300;0.394;2023-06-14T09:47:23;99728.88;;;21.00;70.10
17311;BME280;8773;43.300;0.394;2023-06-14T09:49:51;99726.00;;;21.13;69.88
17311;BME280;8773;43.300;0.394;2023-06-14T09:52:20;99729.16;;;21.10;68.77
17311;BME280;8773;43.300;0.394;2023-06-14T09:54:49;99732.69;;;20.92;69.64
17311;BME280;8773;43.300;0.394;2023-06-14T09:57:20;99735.34;;;20.74;70.74
17311;BME280;8773;43.300;0.394;2023-06-14T09:59:52;99735.66;;;21.09;69.95
17311;BME280;8773;43.300;0.394;2023-06-14T10:02:25;99740.41;;;21.14;69.26
17311;BME280;8773;43.300;0.394;2023-06-14T10:04:58;99737.19;;;21.05;69.49
17311;BME280;8773;43.300;0.394;2023-06-14T10:07:26;99736.72;;;21.08;69.07
17311;BME280;8773;43.300;0.394;2023-06-14T10:09:56;99741.16;;;20.53;70.68
17311;BME280;8773;43.300;0.394;2023-06-14T10:12:24;99738.75;;;20.63;70.29
17311;BME280;8773;43.300;0.394;2023-06-14T10:14:53;99743.56;;;20.92;70.08
17311;BME280;8773;43.300;0.394;2023-06-14T10:17:30;99750.69;;;20.87;69.78
17311;BME280;8773;43.300;0.394;2023-06-14T10:20:10;99741.97;;;20.78;69.56
17311;BME280;8773;43.300;0.394;2023-06-14T10:22:45;99747.28;;;20.98;69.75
17311;BME280;8773;43.300;0.394;2023-06-14T10:25:28;99745.44;;;20.92;69.55
17311;BME280;8773;43.300;0.394;2023-06-14T10:28:15;99745.44;;;20.92;69.47
17311;BME280;8773;43.300;0.394;2023-06-14T10:31:06;99750.66;;;20.93;69.39
17311;BME280;8773;43.300;0.394;2023-06-14T10:33:34;99757.97;;;21.11;68.79
17311;BME280;8773;43.300;0.394;2023-06-14T10:36:09;99758.97;;;20.98;69.22
17311;BME280;8773;43.300;0.394;2023-06-14T10:38:37;99755.03;;;20.94;69.06
17311;BME280;8773;43.300;0.394;2023-06-14T10:41:06;99767.13;;;21.17;69.15
17311;BME280;8773;43.300;0.394;2023-06-14T10:43:34;99754.47;;;21.29;68.74
17311;BME280;8773;43.300;0.394;2023-06-14T10:46:15;99766.47;;;21.58;67.80
17311;BME280;8773;43.300;0.394;2023-06-14T10:48:43;99766.44;;;21.21;67.25
17311;BME280;8773;43.300;0.394;2023-06-14T10:51:17;99764.47;;;20.85;68.68
17311;BME280;8773;43.300;0.394;2023-06-14T10:53:44;99766.56;;;20.83;69.25
17311;BME280;8773;43.300;0.394;2023-06-14T10:56:26;99761.91;;;20.97;68.80
17311;BME280;8773;43.300;0.394;2023-06-14T10:58:54;99765.28;;;21.11;68.50
17311;BME280;8773;43.300;0.394;2023-06-14T11:01:31;99760.78;;;21.05;68.40
17311;BME280;8773;43.300;0.394;2023-06-14T11:04:07;99758.06;;;21.05;68.75
17311;BME280;8773;43.300;0.394;2023-06-14T11:06:47;99759.78;;;20.99;68.27
17311;BME280;8773;43.300;0.394;2023-06-14T11:09:39;99760.63;;;20.99;68.43
17311;BME280;8773;43.300;0.394;2023-06-14T11:12:15;99758.44;;;21.08;68.66
17311;BME280;8773;43.300;0.394;2023-06-14T11:14:45;99762.78;;;20.91;68.87
17311;BME280;8773;43.300;0.394;2023-06-14T11:17:13;99765.38;;;21.22;68.26
17311;BME280;8773;43.300;0.394;2023-06-14T11:19:41;99767.88;;;21.24;68.45
17311;BME280;8773;43.300;0.394;2023-06-14T11:22:09;99769.66;;;21.12;68.19
17311;BME280;8773;43.300;0.394;2023-06-14T11:24:36;99774.03;;;20.94;68.43
17311;BME280;8773;43.300;0.394;2023-06-14T11:27:04;99766.63;;;20.77;68.93
17311;BME280;8773;43.300;0.394;2023-06-14T11:29:33;99771.38;;;20.81;69.24
17311;BME280;8773;43.300;0.394;2023-06-14T11:32:00;99775.94;;;21.12;68.27
17311;BME280;8773;43.300;0.394;2023-06-14T11:34:28;99777.91;;;21.23;67.86
17311;BME280;8773;43.300;0.394;2023-06-14T11:36:56;99776.50;;;21.39;66.64
17311;BME280;8773;43.300;0.394;2023-06-14T11:39:24;99778.31;;;21.27;67.23
17311;BME280;8773;43.300;0.394;2023-06-14T11:41:52;99794.72;;;21.14;67.23
17311;BME280;8773;43.300;0.394;2023-06-14T11:44:19;99786.66;;;21.25;67.36
17311;BME280;8773;43.300;0.394;2023-06-14T11:46:48;99781.25;;;21.62;66.69
17311;BME280;8773;43.300;0.394;2023-06-14T11:49:16;99790.19;;;21.69;66.53
17311;BME280;8773;43.300;0.394;2023-06-14T11:51:43;99788.53;;;21.86;65.04
17311;BME280;8773;43.300;0.394;2023-06-14T11:54:11;99784.50;;;21.52;65.66
17311;BME280;8773;43.300;0.394;2023-06-14T11:56:39;99788.53;;;21.68;65.34
17311;BME280;8773;43.300;0.394;2023-06-14T11:59:06;99792.16;;;21.80;65.16
17311;BME280;8773;43.300;0.394;2023-06-14T12:01:36;99800.06;;;21.45;65.34
17311;BME280;8773;43.300;0.394;2023-06-14T12:04:05;99790.75;;;21.35;65.77
17311;BME280;8773;43.300;0.394;2023-06-14T12:06:33;99794.47;;;21.40;65.92
17311;BME280;8773;43.300;0.394;2023-06-14T12:09:03;99793.56;;;21.46;65.63
17311;BME280;8773;43.300;0.394;2023-06-14T12:11:33;99802.31;;;21.48;66.20
17311;BME280;8773;43.300;0.394;2023-06-14T12:14:03;99803.38;;;21.47;65.22
17311;BME280;8773;43.300;0.394;2023-06-14T12:16:32;99807.28;;;21.51;65.80
17311;BME280;8773;43.300;0.394;2023-06-14T12:19:18;99804.00;;;21.49;65.38
17311;BME280;8773;43.300;0.394;2023-06-14T12:21:47;99814.47;;;22.49;67.19
17311;BME280;8773;43.300;0.394;2023-06-14T12:24:14;99805.22;;;22.20;62.36
17311;BME280;8773;43.300;0.394;2023-06-14T12:26:42;99811.00;;;21.93;64.26
17311;BME280;8773;43.300;0.394;2023-06-14T12:29:10;99810.69;;;22.02;64.39
17311;BME280;8773;43.300;0.394;2023-06-14T12:31:37;99798.16;;;22.49;63.08
17311;BME280;8773;43.300;0.394;2023-06-14T12:34:05;99806.13;;;22.32;62.04
17311;BME280;8773;43.300;0.394;2023-06-14T12:36:34;99802.22;;;22.10;62.72
17311;BME280;8773;43.300;0.394;2023-06-14T12:39:01;99800.50;;;21.97;63.55
17311;BME280;8773;43.300;0.394;2023-06-14T12:41:29;99817.41;;;22.17;63.74
17311;BME280;8773;43.300;0.394;2023-06-14T12:43:56;99809.91;;;22.31;63.17
17311;BME280;8773;43.300;0.394;2023-06-14T12:46:24;99812.72;;;22.54;62.08
17311;BME280;8773;43.300;0.394;2023-06-14T12:48:51;99814.38;;;22.55;62.03
17311;BME280;8773;43.300;0.394;2023-06-14T12:51:19;99817.84;;;22.62;62.17
17311;BME280;8773;43.300;0.394;2023-06-14T12:53:48;99819.91;;;22.79;63.02
17311;BME280;8773;43.300;0.394;2023-06-14T12:56:15;99806.63;;;22.71;62.69
17311;BME280;8773;43.300;0.394;2023-06-14T12:58:42;99819.44;;;22.52;62.14
17311;BME280;8773;43.300;0.394;2023-06-14T13:01:10;99822.59;;;22.37;63.24
17311;BME280;8773;43.300;0.394;2023-06-14T13:03:37;99829.41;;;22.28;62.70
17311;BME280;8773;43.300;0.394;2023-06-14T13:06:05;99829.47;;;21.91;63.59
17311;BME280;8773;43.300;0.394;2023-06-14T13:08:32;99827.19;;;21.88;64.13
17311;BME280;8773;43.300;0.394;2023-06-14T13:11:01;99827.69;;;21.97;63.64
17311;BME280;8773;43.300;0.394;2023-06-14T13:13:29;99839.19;;;21.81;63.53
17311;BME280;8773;43.300;0.394;2023-06-14T13:15:56;99837.66;;;21.67;63.83
17311;BME280;8773;43.300;0.394;2023-06-14T13:18:23;99836.59;;;21.49;64.20